createdAt,value
2023-05-23T00:01:18.577Z,19.33
2023-05-23T00:03:50.167Z,26.48
2023-05-23T00:06:23.525Z,17.52
2023-05-23T00:08:54.374Z,25.70
2023-05-23T00:11:27.257Z,18.17
2023-05-23T00:13:57.751Z,21.92
2023-05-23T00:16:27.217Z,18.88
2023-05-23T00:18:57.924Z,23.00
2023-05-23T00:21:30.951Z,16.67
2023-05-23T00:24:00.464Z,17.67
2023-05-23T00:26:31.652Z,21.63
2023-05-23T00:29:00.571Z,14.88
2023-05-23T00:31:30.723Z,20.08
2023-05-23T00:34:02.752Z,15.65
2023-05-23T00:36:37.792Z,14.90
2023-05-23T00:39:08.044Z,17.20
2023-05-23T00:41:39.630Z,17.02
2023-05-23T00:44:13.970Z,16.92
2023-05-23T00:46:46.227Z,17.25
2023-05-23T00:49:20.646Z,17.40
2023-05-23T00:51:52.838Z,19.85
2023-05-23T00:54:29.317Z,14.23
2023-05-23T00:57:03.635Z,16.88
2023-05-23T00:59:33.299Z,19.05
2023-05-23T01:02:04.949Z,15.07
2023-05-23T01:04:34.705Z,15.23
2023-05-23T01:07:07.038Z,21.73
2023-05-23T01:09:38.096Z,19.50
2023-05-23T01:12:22.062Z,20.75
2023-05-23T01:15:04.888Z,19.38
2023-05-23T01:17:43.933Z,22.63
2023-05-23T01:20:19.682Z,22.60
2023-05-23T01:23:31.935Z,21.27
2023-05-23T01:26:20.922Z,26.15
2023-05-23T01:28:57.265Z,32.88
2023-05-23T01:31:28.982Z,23.75
2023-05-23T01:34:01.953Z,27.17
2023-05-23T01:36:35.652Z,23.85
2023-05-23T01:39:06.653Z,21.13
2023-05-23T01:41:38.095Z,22.15
2023-05-23T01:44:09.627Z,24.20
2023-05-23T01:46:40.866Z,20.25
2023-05-23T01:49:14.640Z,25.55
2023-05-23T01:51:44.869Z,18.40
2023-05-23T01:54:17.363Z,22.02
2023-05-23T01:56:49.556Z,24.70
2023-05-23T01:59:21.759Z,25.88
2023-05-23T02:01:51.231Z,28.10
2023-05-23T02:04:21.122Z,26.20
2023-05-23T02:06:50.540Z,25.45
2023-05-23T02:09:23.017Z,18.58
2023-05-23T02:11:52.004Z,23.35
2023-05-23T02:14:26.598Z,25.67
2023-05-23T02:16:59.345Z,24.90
2023-05-23T02:19:30.136Z,27.38
2023-05-23T02:21:58.707Z,35.80
2023-05-23T02:24:29.256Z,27.13
2023-05-23T02:27:00.540Z,23.17
2023-05-23T02:29:33.930Z,30.67
2023-05-23T02:32:04.031Z,24.35
2023-05-23T02:34:33.502Z,30.38
2023-05-23T02:37:02.944Z,31.90
2023-05-23T02:39:33.664Z,27.55
2023-05-23T02:42:05.055Z,29.05
2023-05-23T02:44:35.927Z,28.63
2023-05-23T02:47:05.267Z,28.73
2023-05-23T02:49:35.039Z,25.88
2023-05-23T02:52:05.275Z,34.22
2023-05-23T02:54:36.239Z,26.05
2023-05-23T02:57:08.643Z,34.45
2023-05-23T02:59:40.419Z,29.70
2023-05-23T03:02:11.986Z,27.20
2023-05-23T03:04:41.638Z,28.25
2023-05-23T03:07:14.286Z,30.98
2023-05-23T03:09:53.126Z,24.88
2023-05-23T03:12:27.828Z,32.22
2023-05-23T03:15:01.544Z,39.08
2023-05-23T03:17:30.259Z,32.17
2023-05-23T03:19:59.931Z,29.63
2023-05-23T03:22:30.141Z,31.10
2023-05-23T03:24:59.233Z,29.30
2023-05-23T03:27:28.630Z,39.88
2023-05-23T03:29:59.285Z,25.88
2023-05-23T03:32:32.620Z,31.70
2023-05-23T03:35:02.617Z,35.05
2023-05-23T03:37:32.996Z,29.10
2023-05-23T03:40:02.405Z,29.00
2023-05-23T03:42:33.490Z,28.60
2023-05-23T03:45:04.218Z,25.90
2023-05-23T03:47:36.174Z,19.55
2023-05-23T03:50:06.035Z,19.75
2023-05-23T03:52:35.583Z,21.90
2023-05-23T03:55:12.011Z,19.17
2023-05-23T03:57:41.383Z,21.42
2023-05-23T04:00:14.608Z,24.85
2023-05-23T04:02:44.225Z,29.48
2023-05-23T04:05:14.883Z,22.00
2023-05-23T04:07:52.279Z,16.83
2023-05-23T04:10:24.150Z,15.95
2023-05-23T04:12:54.101Z,19.02
2023-05-23T04:15:25.159Z,21.10
2023-05-23T04:18:00.157Z,18.58
2023-05-23T04:20:30.110Z,26.73
2023-05-23T04:23:01.602Z,22.33
2023-05-23T04:25:30.366Z,30.58
2023-05-23T04:28:00.862Z,20.88
2023-05-23T04:30:32.334Z,20.98
2023-05-23T04:33:03.939Z,19.17
2023-05-23T04:35:42.326Z,22.20
2023-05-23T04:38:15.186Z,23.48
2023-05-23T04:40:44.281Z,24.08
2023-05-23T04:43:14.595Z,21.98
2023-05-23T04:45:44.839Z,19.80
2023-05-23T04:48:17.318Z,22.95
2023-05-23T04:50:48.502Z,27.52
2023-05-23T04:53:18.273Z,23.00
2023-05-23T04:55:47.849Z,24.30
2023-05-23T04:58:18.155Z,21.35
2023-05-23T05:00:51.385Z,24.70
2023-05-23T05:03:22.201Z,27.17
2023-05-23T05:05:51.895Z,24.58
2023-05-23T05:08:22.780Z,23.55
2023-05-23T05:10:52.182Z,21.88
2023-05-23T05:13:23.059Z,23.02
2023-05-23T05:15:54.923Z,20.48
2023-05-23T05:18:35.205Z,23.30
2023-05-23T05:21:03.943Z,21.05
2023-05-23T05:23:34.524Z,23.52
2023-05-23T05:26:05.373Z,25.15
2023-05-23T05:28:35.585Z,18.55
2023-05-23T05:31:07.497Z,27.50
2023-05-23T05:33:38.163Z,20.38
2023-05-23T05:36:12.923Z,25.33
2023-05-23T05:38:42.721Z,16.27
2023-05-23T05:41:17.918Z,20.45
2023-05-23T05:43:47.629Z,18.98
2023-05-23T05:46:23.225Z,14.30
2023-05-23T05:48:57.700Z,21.38
2023-05-23T05:51:32.551Z,19.52
2023-05-23T05:54:05.397Z,19.83
2023-05-23T05:56:34.715Z,19.92
2023-05-23T05:59:03.490Z,17.42
2023-05-23T06:01:35.074Z,17.25
2023-05-23T06:04:07.273Z,25.73
2023-05-23T06:06:38.406Z,13.80
2023-05-23T06:09:08.818Z,21.38
2023-05-23T06:11:41.266Z,16.70
2023-05-23T06:14:12.004Z,18.08
2023-05-23T06:16:55.004Z,18.08
2023-05-23T06:19:34.736Z,16.95
2023-05-23T06:22:03.971Z,15.02
2023-05-23T06:24:40.320Z,16.70
2023-05-23T06:27:11.200Z,18.45
2023-05-23T06:29:42.007Z,14.52
2023-05-23T06:32:15.092Z,25.27
2023-05-23T06:34:44.543Z,23.50
2023-05-23T06:37:13.712Z,20.15
2023-05-23T06:39:47.907Z,22.77
2023-05-23T06:42:20.301Z,24.05
2023-05-23T06:44:52.471Z,28.05
2023-05-23T06:47:26.764Z,22.35
2023-05-23T06:49:56.380Z,25.00
2023-05-23T06:52:28.948Z,24.02
2023-05-23T06:54:58.659Z,25.75
2023-05-23T06:57:30.095Z,27.33
2023-05-23T07:00:03.396Z,21.67
2023-05-23T07:02:35.010Z,24.60
2023-05-23T07:05:05.572Z,21.33
2023-05-23T07:07:36.535Z,25.10
2023-05-23T07:10:12.159Z,25.45
2023-05-23T07:12:42.882Z,22.80
2023-05-23T07:15:17.432Z,16.20
2023-05-23T07:17:52.253Z,25.25
2023-05-23T07:20:22.183Z,22.42
2023-05-23T07:22:53.079Z,20.08
2023-05-23T07:25:24.203Z,25.77
2023-05-23T07:27:55.206Z,20.33
2023-05-23T07:30:25.152Z,22.35
2023-05-23T07:32:57.050Z,24.73
2023-05-23T07:35:28.937Z,25.77
2023-05-23T07:38:02.080Z,22.98
2023-05-23T07:40:37.581Z,24.20
2023-05-23T07:45:40.740Z,17.17
2023-05-23T07:48:12.988Z,18.83
2023-05-23T07:50:45.297Z,30.63
2023-05-23T07:53:14.383Z,27.92
2023-05-23T07:55:44.838Z,22.38
2023-05-23T07:58:14.238Z,19.88
2023-05-23T08:00:45.038Z,27.65
2023-05-23T08:03:21.030Z,22.30
2023-05-23T08:05:51.336Z,19.88
2023-05-23T08:08:19.902Z,22.95
2023-05-23T08:11:00.178Z,18.08
2023-05-23T08:13:29.044Z,24.70
2023-05-23T08:15:58.876Z,21.27
2023-05-23T08:18:31.293Z,24.48
2023-05-23T08:21:04.087Z,28.67
2023-05-23T08:23:33.553Z,24.90
2023-05-23T08:26:03.102Z,23.55
2023-05-23T08:28:35.014Z,28.50
2023-05-23T08:31:05.206Z,19.85
2023-05-23T08:33:38.971Z,15.85
2023-05-23T08:36:08.390Z,19.90
2023-05-23T08:38:38.399Z,26.25
2023-05-23T08:41:15.099Z,29.48
2023-05-23T08:43:48.391Z,24.60
2023-05-23T08:46:24.151Z,19.23
2023-05-23T08:49:00.485Z,19.25
2023-05-23T08:51:32.170Z,17.35
2023-05-23T08:54:03.828Z,27.77
2023-05-23T08:56:35.101Z,23.10
2023-05-23T08:59:06.918Z,20.42
2023-05-23T09:01:38.360Z,24.65
2023-05-23T09:04:11.862Z,21.88
2023-05-23T09:06:41.133Z,20.50
2023-05-23T09:09:13.507Z,18.20
2023-05-23T09:11:46.086Z,20.90
2023-05-23T09:14:18.149Z,29.40
2023-05-23T09:16:51.394Z,21.77
2023-05-23T09:19:25.841Z,23.98
2023-05-23T09:21:59.279Z,17.90
2023-05-23T09:24:37.688Z,24.05
2023-05-23T09:27:08.816Z,16.48
2023-05-23T09:29:41.116Z,24.45
2023-05-23T09:32:21.159Z,22.45
2023-05-23T09:35:08.925Z,23.20
2023-05-23T09:37:43.487Z,19.67
2023-05-23T09:40:15.966Z,17.83
2023-05-23T09:42:50.998Z,21.70
2023-05-23T09:45:21.146Z,19.75
2023-05-23T09:48:01.023Z,24.70
2023-05-23T09:50:36.365Z,22.17
2023-05-23T09:53:05.708Z,18.63
2023-05-23T09:55:36.058Z,19.40
2023-05-23T09:58:06.038Z,22.88
2023-05-23T10:00:37.010Z,19.58
2023-05-23T10:03:23.091Z,18.00
2023-05-23T10:06:01.018Z,17.95
2023-05-23T10:08:44.847Z,16.95
2023-05-23T10:12:10.923Z,17.02
2023-05-23T10:14:48.770Z,16.75
2023-05-23T10:17:31.510Z,22.05
2023-05-23T10:20:08.756Z,19.80
2023-05-23T10:22:47.463Z,20.65
2023-05-23T10:25:19.642Z,14.05
2023-05-23T10:27:54.076Z,15.02
2023-05-23T10:30:27.662Z,23.07
2023-05-23T10:33:01.350Z,19.25
2023-05-23T10:35:49.896Z,16.17
2023-05-23T10:38:34.302Z,19.25
2023-05-23T10:41:12.747Z,13.82
2023-05-23T10:43:55.911Z,20.10
2023-05-23T10:46:56.278Z,16.00
2023-05-23T10:49:41.714Z,13.30
2023-05-23T10:52:17.164Z,13.45
2023-05-23T10:54:52.941Z,13.65
2023-05-23T10:57:30.528Z,13.40
2023-05-23T11:00:01.138Z,15.18
2023-05-23T11:02:32.092Z,15.15
2023-05-23T11:05:24.871Z,9.02
2023-05-23T11:08:14.899Z,12.38
2023-05-23T11:11:03.232Z,15.48
2023-05-23T11:14:01.103Z,18.20
2023-05-23T11:16:32.138Z,21.30
2023-05-23T11:19:30.204Z,13.68
2023-05-23T11:22:06.284Z,11.57
2023-05-23T11:24:55.980Z,13.75
2023-05-23T11:27:36.279Z,16.48
2023-05-23T11:30:11.664Z,15.00
2023-05-23T11:32:47.538Z,16.33
2023-05-23T11:35:19.862Z,17.42
2023-05-23T11:37:54.799Z,17.63
2023-05-23T11:40:34.832Z,17.52
2023-05-23T11:43:11.732Z,12.32
2023-05-23T11:45:43.123Z,15.10
2023-05-23T11:48:22.760Z,14.63
2023-05-23T11:50:56.154Z,16.20
2023-05-23T11:53:29.334Z,21.77
2023-05-23T11:56:05.627Z,18.65
2023-05-23T11:58:41.919Z,20.33
2023-05-23T12:01:14.805Z,17.23
2023-05-23T12:03:55.473Z,15.43
2023-05-23T12:06:29.312Z,18.92
2023-05-23T12:09:01.448Z,15.45
2023-05-23T12:11:35.999Z,13.43
2023-05-23T12:14:09.905Z,15.10
2023-05-23T12:16:41.658Z,18.98
2023-05-23T12:19:11.893Z,12.15
2023-05-23T12:21:48.345Z,12.68
2023-05-23T12:24:24.307Z,13.20
2023-05-23T12:26:56.695Z,18.67
2023-05-23T12:29:37.965Z,15.10
2023-05-23T12:32:09.046Z,15.10
2023-05-23T12:34:44.996Z,15.57
2023-05-23T12:37:20.145Z,19.20
2023-05-23T12:39:49.931Z,15.85
2023-05-23T12:42:20.625Z,12.10
2023-05-23T12:44:57.200Z,11.98
2023-05-23T12:47:26.494Z,15.05
2023-05-23T12:49:59.585Z,11.95
2023-05-23T12:52:28.712Z,8.98
2023-05-23T12:54:59.308Z,16.35
2023-05-23T12:57:28.702Z,14.57
2023-05-23T13:00:02.859Z,15.88
2023-05-23T13:02:32.662Z,15.68
2023-05-23T13:05:02.155Z,14.57
2023-05-23T13:07:31.753Z,12.90
2023-05-23T13:10:02.381Z,13.40
2023-05-23T13:12:33.368Z,14.90
2023-05-23T13:15:12.073Z,20.67
2023-05-23T13:17:48.076Z,11.00
2023-05-23T13:20:21.521Z,16.33
2023-05-23T13:22:52.632Z,14.30
2023-05-23T13:25:22.490Z,15.00
2023-05-23T13:27:53.803Z,18.17
2023-05-23T13:30:26.695Z,17.42
2023-05-23T13:32:56.664Z,11.60
2023-05-23T13:35:28.394Z,11.77
2023-05-23T13:37:59.395Z,13.30
2023-05-23T13:40:30.847Z,15.10
2023-05-23T13:42:59.895Z,14.85
2023-05-23T13:45:33.941Z,14.70
2023-05-23T13:48:06.495Z,17.70
2023-05-23T13:50:35.797Z,17.38
2023-05-23T13:53:14.530Z,14.52
2023-05-23T13:55:43.245Z,17.58
2023-05-23T13:58:14.999Z,15.43
2023-05-23T14:00:47.857Z,16.90
2023-05-23T14:03:21.782Z,14.35
2023-05-23T14:05:51.478Z,13.38
2023-05-23T14:08:21.734Z,14.18
2023-05-23T14:10:52.110Z,13.00
2023-05-23T14:13:21.959Z,8.73
2023-05-23T14:15:54.707Z,13.70
2023-05-23T14:18:24.213Z,16.17
2023-05-23T14:20:55.570Z,16.45
2023-05-23T14:23:27.593Z,13.48
2023-05-23T14:25:56.915Z,11.65
2023-05-23T14:28:27.898Z,13.63
2023-05-23T14:31:04.842Z,10.60
2023-05-23T14:33:36.278Z,10.38
2023-05-23T14:36:06.543Z,10.50
2023-05-23T14:38:36.230Z,10.55
2023-05-23T14:41:06.330Z,17.83
2023-05-23T14:43:35.620Z,16.50
2023-05-23T14:46:06.639Z,11.93
2023-05-23T14:48:37.005Z,12.90
2023-05-23T14:51:09.501Z,14.55
2023-05-23T14:53:40.928Z,14.30
2023-05-23T14:56:10.959Z,15.85
2023-05-23T14:58:41.577Z,12.98
2023-05-23T15:01:20.410Z,10.50
2023-05-23T15:03:50.236Z,13.30
2023-05-23T15:06:19.191Z,11.27
2023-05-23T15:08:49.240Z,12.15
2023-05-23T15:11:22.793Z,11.98
2023-05-23T15:13:53.136Z,12.88
2023-05-23T15:16:26.375Z,9.75
2023-05-23T15:18:57.638Z,15.05
2023-05-23T15:21:34.134Z,14.52
2023-05-23T15:24:03.889Z,9.27
2023-05-23T15:26:33.655Z,11.77
2023-05-23T15:29:05.634Z,12.68
2023-05-23T15:31:36.245Z,12.07
2023-05-23T15:34:06.180Z,11.70
2023-05-23T15:36:37.537Z,9.13
2023-05-23T15:39:08.242Z,14.02
2023-05-23T15:41:37.791Z,14.18
2023-05-23T15:44:10.535Z,11.60
2023-05-23T15:46:48.035Z,13.38
2023-05-23T15:49:25.684Z,12.88
2023-05-23T15:51:57.596Z,10.18
2023-05-23T15:54:26.776Z,13.48
2023-05-23T15:56:58.453Z,10.70
2023-05-23T15:59:28.589Z,13.43
2023-05-23T16:02:00.066Z,8.07
2023-05-23T16:04:29.481Z,10.57
2023-05-23T16:06:58.474Z,15.05
2023-05-23T16:09:29.769Z,11.82
2023-05-23T16:12:00.603Z,9.57
2023-05-23T16:14:32.751Z,17.70
2023-05-23T16:17:06.840Z,18.85
2023-05-23T16:19:38.084Z,8.05
2023-05-23T16:22:11.804Z,10.70
2023-05-23T16:24:41.090Z,9.23
2023-05-23T16:27:15.932Z,8.40
2023-05-23T16:29:49.012Z,13.82
2023-05-23T16:32:24.615Z,13.10
2023-05-23T16:34:54.788Z,11.00
2023-05-23T16:37:25.936Z,19.80
2023-05-23T16:39:55.950Z,15.95
2023-05-23T16:42:30.176Z,11.82
2023-05-23T16:45:04.064Z,9.00
2023-05-23T16:47:40.040Z,13.55
2023-05-23T16:50:11.581Z,11.15
2023-05-23T16:52:48.864Z,22.65
2023-05-23T16:55:20.491Z,11.73
2023-05-23T16:57:50.022Z,14.02
2023-05-23T17:00:20.854Z,14.82
2023-05-23T17:02:55.115Z,9.30
2023-05-23T17:05:24.972Z,19.75
2023-05-23T17:07:54.187Z,11.30
2023-05-23T17:10:26.902Z,19.80
2023-05-23T17:12:57.001Z,12.90
2023-05-23T17:15:28.130Z,13.52
2023-05-23T17:17:59.499Z,13.45
2023-05-23T17:20:33.597Z,11.40
2023-05-23T17:23:05.334Z,15.80
2023-05-23T17:25:38.436Z,12.48
2023-05-23T17:28:10.489Z,13.13
2023-05-23T17:30:45.913Z,15.43
2023-05-23T17:38:34.729Z,9.35
2023-05-23T17:41:03.913Z,15.55
2023-05-23T17:43:33.090Z,12.68
2023-05-23T17:46:02.366Z,18.23
2023-05-23T17:48:46.425Z,16.83
2023-05-23T17:51:19.825Z,17.70
2023-05-23T17:53:53.576Z,16.10
2023-05-23T17:56:29.494Z,14.98
2023-05-23T17:59:13.289Z,14.30
2023-05-23T18:01:45.095Z,18.13
2023-05-23T18:04:36.985Z,12.82
2023-05-23T18:07:21.493Z,18.98
2023-05-23T18:09:53.451Z,17.50
2023-05-23T18:12:37.660Z,16.38
2023-05-23T18:15:14.259Z,16.52
2023-05-23T18:17:56.599Z,14.45
2023-05-23T18:20:34.886Z,18.10
2023-05-23T18:23:10.535Z,21.38
2023-05-23T18:26:21.726Z,21.20
2023-05-23T18:28:55.522Z,13.30
2023-05-23T18:31:25.255Z,24.85
2023-05-23T18:33:58.056Z,26.00
2023-05-23T18:36:32.850Z,16.17
2023-05-23T18:39:07.650Z,21.30
2023-05-23T18:41:42.794Z,15.13
2023-05-23T18:44:31.070Z,14.00
2023-05-23T18:47:08.959Z,23.50
2023-05-23T18:49:39.182Z,15.75
2023-05-23T18:52:18.538Z,13.43
2023-05-23T18:55:02.180Z,14.00
2023-05-23T18:57:39.519Z,21.80
2023-05-23T19:00:17.171Z,12.52
2023-05-23T19:02:50.254Z,23.23
2023-05-23T19:05:21.775Z,22.38
2023-05-23T19:08:13.834Z,14.95
2023-05-23T19:10:49.138Z,18.05
2023-05-23T19:13:30.109Z,22.55
2023-05-23T19:16:09.493Z,16.52
2023-05-23T19:18:49.172Z,21.77
2023-05-23T19:21:42.939Z,16.13
2023-05-23T19:24:18.599Z,12.27
2023-05-23T19:26:59.186Z,19.08
2023-05-23T19:29:45.902Z,17.23
2023-05-23T19:32:35.547Z,22.65
2023-05-23T19:35:16.560Z,14.82
2023-05-23T19:41:00.772Z,16.98
2023-05-23T19:43:36.137Z,19.25
2023-05-23T19:46:10.266Z,19.00
2023-05-23T19:48:46.095Z,19.00
2023-05-23T19:51:23.987Z,16.65
2023-05-23T19:53:57.506Z,22.75
2023-05-23T19:56:36.611Z,16.48
2023-05-23T19:59:09.523Z,16.42
2023-05-23T20:01:39.641Z,24.83
2023-05-23T20:04:12.285Z,11.55
2023-05-23T20:06:43.150Z,19.95
2023-05-23T20:09:13.050Z,17.65
2023-05-23T20:11:45.706Z,15.77
2023-05-23T20:14:15.179Z,15.45
2023-05-23T20:16:44.820Z,30.42
2023-05-23T20:19:14.322Z,14.70
2023-05-23T20:21:45.694Z,14.88
2023-05-23T20:24:16.727Z,23.85
2023-05-23T20:26:48.690Z,21.20
2023-05-23T20:29:18.908Z,17.95
2023-05-23T20:31:48.882Z,17.73
2023-05-23T20:34:21.380Z,16.05
2023-05-23T20:36:56.839Z,17.63
2023-05-23T20:39:26.855Z,26.92
2023-05-23T20:41:57.275Z,24.92
2023-05-23T20:44:27.325Z,19.55
2023-05-23T20:46:57.371Z,21.27
2023-05-23T20:49:27.472Z,22.00
2023-05-23T20:52:01.859Z,22.38
2023-05-23T20:57:09.464Z,18.80
2023-05-23T20:59:41.125Z,21.08
2023-05-23T21:02:14.478Z,21.08
2023-05-23T21:04:46.387Z,21.05
2023-05-23T21:07:15.888Z,19.10
2023-05-23T21:09:45.517Z,23.38
2023-05-23T21:12:17.141Z,21.40
2023-05-23T21:14:48.793Z,16.70
2023-05-23T21:17:21.773Z,17.73
2023-05-23T21:19:52.105Z,15.10
2023-05-23T21:22:21.520Z,24.98
2023-05-23T21:24:53.068Z,18.77
2023-05-23T21:27:24.183Z,17.90
2023-05-23T21:29:54.527Z,23.98
2023-05-23T21:32:26.174Z,30.02
2023-05-23T21:34:58.864Z,22.73
2023-05-23T21:37:27.966Z,21.95
2023-05-23T21:39:59.207Z,28.25
2023-05-23T21:42:31.172Z,22.85
2023-05-23T21:45:01.927Z,25.75
2023-05-23T21:47:31.627Z,21.95
2023-05-23T21:50:04.608Z,34.25
2023-05-23T21:52:36.967Z,20.70
2023-05-23T21:55:09.934Z,20.13
2023-05-23T21:57:44.175Z,34.80
2023-05-23T22:00:19.194Z,17.88
2023-05-23T22:02:50.361Z,22.80
2023-05-23T22:05:20.534Z,26.60
2023-05-23T22:07:51.108Z,18.63
2023-05-23T22:10:23.771Z,25.92
2023-05-23T22:12:54.985Z,29.08
2023-05-23T22:15:32.897Z,28.23
2023-05-23T22:18:03.913Z,24.50
2023-05-23T22:20:34.890Z,28.63
2023-05-23T22:23:03.692Z,25.80
2023-05-23T22:25:35.509Z,32.35
2023-05-23T22:28:10.765Z,31.58
2023-05-23T22:30:44.196Z,20.35
2023-05-23T22:33:13.872Z,22.73
2023-05-23T22:35:42.654Z,27.15
2023-05-23T22:38:14.005Z,19.40
2023-05-23T22:40:47.716Z,18.50
2023-05-23T22:43:18.414Z,25.35
2023-05-23T22:45:50.317Z,23.65
2023-05-23T22:48:22.565Z,19.40
2023-05-23T22:50:56.469Z,23.55
2023-05-23T22:53:30.552Z,27.08
2023-05-23T22:56:01.423Z,24.83
2023-05-23T22:58:36.265Z,24.88
2023-05-23T23:01:07.732Z,26.83
2023-05-23T23:03:38.264Z,28.85
2023-05-23T23:06:09.976Z,20.52
2023-05-23T23:08:39.410Z,28.73
2023-05-23T23:11:10.748Z,26.95
2023-05-23T23:13:42.341Z,24.17
2023-05-23T23:16:13.418Z,18.52
2023-05-23T23:18:43.389Z,31.25
2023-05-23T23:21:15.197Z,17.95
2023-05-23T23:23:45.351Z,23.52
2023-05-23T23:26:14.316Z,24.40
2023-05-23T23:28:48.940Z,23.70
2023-05-23T23:31:19.691Z,28.97
2023-05-23T23:33:50.174Z,23.58
2023-05-23T23:36:19.931Z,25.30
2023-05-23T23:38:49.019Z,26.75
2023-05-23T23:41:18.175Z,31.60
2023-05-23T23:43:48.448Z,36.33
2023-05-23T23:46:23.597Z,20.73
2023-05-23T23:48:53.259Z,27.08
2023-05-23T23:51:23.607Z,32.63
2023-05-23T23:53:54.112Z,23.85
2023-05-23T23:56:28.519Z,28.13
2023-05-23T23:59:06.518Z,35.88
